sensor_id;sensor_type;location;lat;lon;timestamp;P1;durP1;ratioP1;P2;durP2;ratioP2
9783;SDS011;4931;44.874;-1.092;2023-07-20T00:01:05;3.95;;;2.28;;
9783;SDS011;4931;44.874;-1.092;2023-07-20T00:03:31;4.80;;;2.35;;
9783;SDS011;4931;44.874;-1.092;2023-07-20T00:05:56;6.85;;;2.50;;
9783;SDS011;4931;44.874;-1.092;2023-07-20T00:08:22;3.90;;;2.50;;
9783;SDS011;4931;44.874;-1.092;2023-07-20T00:10:47;4.25;;;2.60;;
9783;SDS011;4931;44.874;-1.092;2023-07-20T00:13:13;6.22;;;2.60;;
9783;SDS011;4931;44.874;-1.092;2023-07-20T00:15:41;3.83;;;2.28;;
9783;SDS011;4931;44.874;-1.092;2023-07-20T00:18:06;4.20;;;2.40;;
9783;SDS011;4931;44.874;-1.092;2023-07-20T00:20:32;4.40;;;2.40;;
9783;SDS011;4931;44.874;-1.092;2023-07-20T00:22:58;4.65;;;2.97;;
9783;SDS011;4931;44.874;-1.092;2023-07-20T00:25:24;5.75;;;2.50;;
9783;SDS011;4931;44.874;-1.092;2023-07-20T00:27:50;3.67;;;2.55;;
9783;SDS011;4931;44.874;-1.092;2023-07-20T00:30:15;4.50;;;2.85;;
9783;SDS011;4931;44.874;-1.092;2023-07-20T00:32:42;6.15;;;3.10;;
9783;SDS011;4931;44.874;-1.092;2023-07-20T00:35:07;4.05;;;2.83;;
9783;SDS011;4931;44.874;-1.092;2023-07-20T00:37:34;4.78;;;2.78;;
9783;SDS011;4931;44.874;-1.092;2023-07-20T00:39:59;3.80;;;2.60;;
9783;SDS011;4931;44.874;-1.092;2023-07-20T00:42:25;4.63;;;2.42;;
9783;SDS011;4931;44.874;-1.092;2023-07-20T00:44:51;3.25;;;2.45;;
9783;SDS011;4931;44.874;-1.092;2023-07-20T00:47:17;4.20;;;2.38;;
9783;SDS011;4931;44.874;-1.092;2023-07-20T00:49:42;5.22;;;2.35;;
9783;SDS011;4931;44.874;-1.092;2023-07-20T00:52:09;4.93;;;2.60;;
9783;SDS011;4931;44.874;-1.092;2023-07-20T00:54:36;5.72;;;2.40;;
9783;SDS011;4931;44.874;-1.092;2023-07-20T00:57:02;4.40;;;2.30;;
9783;SDS011;4931;44.874;-1.092;2023-07-20T00:59:29;4.60;;;2.10;;
9783;SDS011;4931;44.874;-1.092;2023-07-20T01:01:55;6.68;;;2.53;;
9783;SDS011;4931;44.874;-1.092;2023-07-20T01:04:20;4.28;;;2.00;;
9783;SDS011;4931;44.874;-1.092;2023-07-20T01:09:31;4.15;;;2.25;;
9783;SDS011;4931;44.874;-1.092;2023-07-20T01:12:06;6.90;;;2.50;;
9783;SDS011;4931;44.874;-1.092;2023-07-20T01:14:34;8.25;;;2.20;;
9783;SDS011;4931;44.874;-1.092;2023-07-20T01:17:00;5.78;;;2.20;;
9783;SDS011;4931;44.874;-1.092;2023-07-20T01:19:25;3.78;;;2.50;;
9783;SDS011;4931;44.874;-1.092;2023-07-20T01:21:55;6.80;;;2.40;;
9783;SDS011;4931;44.874;-1.092;2023-07-20T01:33:21;3.95;;;2.50;;
9783;SDS011;4931;44.874;-1.092;2023-07-20T01:35:50;6.85;;;2.50;;
9783;SDS011;4931;44.874;-1.092;2023-07-20T01:38:21;4.47;;;2.67;;
9783;SDS011;4931;44.874;-1.092;2023-07-20T01:40:49;6.45;;;2.70;;
9783;SDS011;4931;44.874;-1.092;2023-07-20T01:43:15;5.72;;;2.63;;
9783;SDS011;4931;44.874;-1.092;2023-07-20T01:45:41;6.40;;;2.72;;
9783;SDS011;4931;44.874;-1.092;2023-07-20T01:48:07;3.92;;;2.70;;
9783;SDS011;4931;44.874;-1.092;2023-07-20T01:50:32;4.30;;;2.50;;
9783;SDS011;4931;44.874;-1.092;2023-07-20T01:52:59;5.13;;;2.90;;
9783;SDS011;4931;44.874;-1.092;2023-07-20T01:55:25;4.50;;;2.85;;
9783;SDS011;4931;44.874;-1.092;2023-07-20T01:57:51;6.20;;;3.03;;
9783;SDS011;4931;44.874;-1.092;2023-07-20T02:00:18;6.30;;;2.97;;
9783;SDS011;4931;44.874;-1.092;2023-07-20T02:02:46;4.10;;;2.45;;
9783;SDS011;4931;44.874;-1.092;2023-07-20T02:05:11;4.95;;;3.00;;
9783;SDS011;4931;44.874;-1.092;2023-07-20T02:07:37;7.22;;;3.58;;
9783;SDS011;4931;44.874;-1.092;2023-07-20T02:10:03;5.10;;;2.90;;
9783;SDS011;4931;44.874;-1.092;2023-07-20T02:12:29;4.70;;;3.05;;
9783;SDS011;4931;44.874;-1.092;2023-07-20T02:14:54;4.85;;;3.05;;
9783;SDS011;4931;44.874;-1.092;2023-07-20T02:17:19;5.45;;;3.40;;
9783;SDS011;4931;44.874;-1.092;2023-07-20T02:19:45;5.80;;;3.95;;
9783;SDS011;4931;44.874;-1.092;2023-07-20T02:22:11;6.47;;;3.70;;
9783;SDS011;4931;44.874;-1.092;2023-07-20T02:24:37;5.32;;;2.80;;
9783;SDS011;4931;44.874;-1.092;2023-07-20T02:27:03;4.05;;;2.50;;
9783;SDS011;4931;44.874;-1.092;2023-07-20T02:29:29;4.85;;;2.85;;
9783;SDS011;4931;44.874;-1.092;2023-07-20T02:31:54;4.43;;;2.63;;
9783;SDS011;4931;44.874;-1.092;2023-07-20T02:34:20;5.57;;;2.83;;
9783;SDS011;4931;44.874;-1.092;2023-07-20T02:36:45;8.07;;;3.33;;
9783;SDS011;4931;44.874;-1.092;2023-07-20T02:39:11;5.63;;;3.47;;
9783;SDS011;4931;44.874;-1.092;2023-07-20T02:41:37;8.00;;;3.80;;
9783;SDS011;4931;44.874;-1.092;2023-07-20T02:44:02;7.45;;;4.07;;
9783;SDS011;4931;44.874;-1.092;2023-07-20T02:46:28;6.55;;;3.72;;
9783;SDS011;4931;44.874;-1.092;2023-07-20T02:48:55;5.97;;;3.90;;
9783;SDS011;4931;44.874;-1.092;2023-07-20T02:51:21;7.68;;;3.60;;
9783;SDS011;4931;44.874;-1.092;2023-07-20T02:53:46;6.45;;;3.83;;
9783;SDS011;4931;44.874;-1.092;2023-07-20T02:56:12;7.68;;;3.53;;
9783;SDS011;4931;44.874;-1.092;2023-07-20T02:58:39;7.03;;;3.58;;
9783;SDS011;4931;44.874;-1.092;2023-07-20T03:01:08;14.45;;;5.25;;
9783;SDS011;4931;44.874;-1.092;2023-07-20T03:03:35;9.60;;;4.57;;
9783;SDS011;4931;44.874;-1.092;2023-07-20T03:06:04;9.48;;;4.28;;
9783;SDS011;4931;44.874;-1.092;2023-07-20T03:08:30;8.50;;;4.50;;
9783;SDS011;4931;44.874;-1.092;2023-07-20T03:10:56;8.30;;;4.50;;
9783;SDS011;4931;44.874;-1.092;2023-07-20T03:13:21;7.47;;;3.80;;
9783;SDS011;4931;44.874;-1.092;2023-07-20T03:15:47;12.43;;;4.57;;
9783;SDS011;4931;44.874;-1.092;2023-07-20T03:18:13;11.32;;;4.32;;
9783;SDS011;4931;44.874;-1.092;2023-07-20T03:20:38;7.68;;;3.90;;
9783;SDS011;4931;44.874;-1.092;2023-07-20T03:23:03;8.85;;;4.05;;
9783;SDS011;4931;44.874;-1.092;2023-07-20T03:25:29;11.57;;;4.60;;
9783;SDS011;4931;44.874;-1.092;2023-07-20T03:27:55;8.18;;;3.90;;
9783;SDS011;4931;44.874;-1.092;2023-07-20T03:30:20;7.15;;;3.53;;
9783;SDS011;4931;44.874;-1.092;2023-07-20T03:32:46;9.95;;;4.05;;
9783;SDS011;4931;44.874;-1.092;2023-07-20T03:35:12;9.93;;;4.18;;
9783;SDS011;4931;44.874;-1.092;2023-07-20T03:37:37;10.02;;;3.90;;
9783;SDS011;4931;44.874;-1.092;2023-07-20T03:40:03;10.10;;;4.10;;
9783;SDS011;4931;44.874;-1.092;2023-07-20T03:42:30;10.55;;;4.47;;
9783;SDS011;4931;44.874;-1.092;2023-07-20T03:44:55;9.50;;;4.72;;
9783;SDS011;4931;44.874;-1.092;2023-07-20T03:47:21;10.02;;;4.47;;
9783;SDS011;4931;44.874;-1.092;2023-07-20T03:49:47;9.13;;;5.07;;
9783;SDS011;4931;44.874;-1.092;2023-07-20T03:52:12;7.20;;;4.28;;
9783;SDS011;4931;44.874;-1.092;2023-07-20T03:54:38;10.85;;;4.25;;
9783;SDS011;4931;44.874;-1.092;2023-07-20T03:57:03;7.03;;;4.28;;
9783;SDS011;4931;44.874;-1.092;2023-07-20T03:59:29;10.63;;;4.38;;
9783;SDS011;4931;44.874;-1.092;2023-07-20T04:01:55;7.93;;;4.45;;
9783;SDS011;4931;44.874;-1.092;2023-07-20T04:04:20;8.63;;;3.88;;
9783;SDS011;4931;44.874;-1.092;2023-07-20T04:06:46;8.48;;;4.07;;
9783;SDS011;4931;44.874;-1.092;2023-07-20T04:09:11;7.60;;;4.45;;
9783;SDS011;4931;44.874;-1.092;2023-07-20T04:11:37;10.88;;;4.85;;
9783;SDS011;4931;44.874;-1.092;2023-07-20T04:14:03;8.07;;;4.63;;
9783;SDS011;4931;44.874;-1.092;2023-07-20T04:16:29;8.27;;;4.40;;
9783;SDS011;4931;44.874;-1.092;2023-07-20T04:18:55;10.85;;;4.10;;
9783;SDS011;4931;44.874;-1.092;2023-07-20T04:21:21;6.03;;;3.65;;
9783;SDS011;4931;44.874;-1.092;2023-07-20T04:23:47;9.50;;;3.95;;
9783;SDS011;4931;44.874;-1.092;2023-07-20T04:26:13;6.80;;;3.58;;
9783;SDS011;4931;44.874;-1.092;2023-07-20T04:28:40;11.70;;;4.22;;
9783;SDS011;4931;44.874;-1.092;2023-07-20T04:31:11;9.18;;;3.85;;
9783;SDS011;4931;44.874;-1.092;2023-07-20T04:33:37;9.50;;;3.63;;
9783;SDS011;4931;44.874;-1.092;2023-07-20T04:36:03;7.60;;;3.65;;
9783;SDS011;4931;44.874;-1.092;2023-07-20T04:38:29;8.68;;;3.78;;
9783;SDS011;4931;44.874;-1.092;2023-07-20T04:40:55;9.95;;;4.15;;
9783;SDS011;4931;44.874;-1.092;2023-07-20T04:43:20;10.15;;;4.20;;
9783;SDS011;4931;44.874;-1.092;2023-07-20T04:45:46;10.98;;;3.67;;
9783;SDS011;4931;44.874;-1.092;2023-07-20T04:48:15;10.30;;;3.70;;
9783;SDS011;4931;44.874;-1.092;2023-07-20T04:50:42;7.65;;;3.50;;
9783;SDS011;4931;44.874;-1.092;2023-07-20T04:53:10;8.63;;;3.70;;
9783;SDS011;4931;44.874;-1.092;2023-07-20T04:55:37;6.65;;;3.60;;
9783;SDS011;4931;44.874;-1.092;2023-07-20T04:58:04;8.23;;;3.78;;
9783;SDS011;4931;44.874;-1.092;2023-07-20T05:00:30;8.35;;;3.33;;
9783;SDS011;4931;44.874;-1.092;2023-07-20T05:02:57;10.07;;;3.85;;
9783;SDS011;4931;44.874;-1.092;2023-07-20T05:05:33;8.07;;;3.40;;
9783;SDS011;4931;44.874;-1.092;2023-07-20T05:07:59;8.13;;;3.83;;
9783;SDS011;4931;44.874;-1.092;2023-07-20T05:10:24;10.90;;;3.78;;
9783;SDS011;4931;44.874;-1.092;2023-07-20T05:12:50;10.75;;;3.83;;
9783;SDS011;4931;44.874;-1.092;2023-07-20T05:15:15;10.15;;;4.00;;
9783;SDS011;4931;44.874;-1.092;2023-07-20T05:17:41;10.95;;;4.07;;
9783;SDS011;4931;44.874;-1.092;2023-07-20T05:20:06;9.45;;;3.83;;
9783;SDS011;4931;44.874;-1.092;2023-07-20T05:22:35;10.27;;;4.20;;
9783;SDS011;4931;44.874;-1.092;2023-07-20T05:25:05;8.50;;;3.78;;
9783;SDS011;4931;44.874;-1.092;2023-07-20T05:27:33;13.05;;;4.20;;
9783;SDS011;4931;44.874;-1.092;2023-07-20T05:30:01;11.80;;;3.90;;
9783;SDS011;4931;44.874;-1.092;2023-07-20T05:32:27;10.30;;;3.67;;
9783;SDS011;4931;44.874;-1.092;2023-07-20T05:34:53;12.23;;;4.00;;
9783;SDS011;4931;44.874;-1.092;2023-07-20T05:37:19;8.77;;;3.60;;
9783;SDS011;4931;44.874;-1.092;2023-07-20T05:39:45;6.22;;;3.45;;
9783;SDS011;4931;44.874;-1.092;2023-07-20T05:42:10;8.10;;;3.42;;
9783;SDS011;4931;44.874;-1.092;2023-07-20T05:44:36;7.40;;;3.90;;
9783;SDS011;4931;44.874;-1.092;2023-07-20T05:47:02;9.35;;;3.58;;
9783;SDS011;4931;44.874;-1.092;2023-07-20T05:49:30;8.00;;;3.53;;
9783;SDS011;4931;44.874;-1.092;2023-07-20T05:51:55;8.25;;;3.30;;
9783;SDS011;4931;44.874;-1.092;2023-07-20T05:54:22;7.75;;;3.50;;
9783;SDS011;4931;44.874;-1.092;2023-07-20T05:56:49;8.68;;;3.65;;
9783;SDS011;4931;44.874;-1.092;2023-07-20T05:59:15;8.68;;;3.35;;
9783;SDS011;4931;44.874;-1.092;2023-07-20T06:01:41;9.55;;;3.33;;
9783;SDS011;4931;44.874;-1.092;2023-07-20T06:04:08;8.70;;;3.33;;
9783;SDS011;4931;44.874;-1.092;2023-07-20T06:06:33;7.38;;;3.28;;
9783;SDS011;4931;44.874;-1.092;2023-07-20T06:08:59;10.38;;;3.28;;
9783;SDS011;4931;44.874;-1.092;2023-07-20T06:11:29;9.48;;;3.10;;
9783;SDS011;4931;44.874;-1.092;2023-07-20T06:13:55;11.13;;;3.40;;
9783;SDS011;4931;44.874;-1.092;2023-07-20T06:16:21;8.13;;;3.42;;
9783;SDS011;4931;44.874;-1.092;2023-07-20T06:18:47;11.68;;;3.40;;
9783;SDS011;4931;44.874;-1.092;2023-07-20T06:21:12;8.82;;;3.85;;
9783;SDS011;4931;44.874;-1.092;2023-07-20T06:23:38;6.65;;;3.00;;
9783;SDS011;4931;44.874;-1.092;2023-07-20T06:26:05;10.00;;;3.30;;
9783;SDS011;4931;44.874;-1.092;2023-07-20T06:28:31;10.55;;;2.83;;
9783;SDS011;4931;44.874;-1.092;2023-07-20T06:31:00;9.35;;;3.65;;
9783;SDS011;4931;44.874;-1.092;2023-07-20T06:33:27;7.22;;;3.13;;
9783;SDS011;4931;44.874;-1.092;2023-07-20T06:35:52;6.13;;;2.85;;
9783;SDS011;4931;44.874;-1.092;2023-07-20T06:38:18;7.15;;;2.80;;
9783;SDS011;4931;44.874;-1.092;2023-07-20T06:40:45;10.95;;;3.03;;
9783;SDS011;4931;44.874;-1.092;2023-07-20T06:43:12;8.10;;;2.65;;
9783;SDS011;4931;44.874;-1.092;2023-07-20T06:45:37;8.55;;;2.72;;
9783;SDS011;4931;44.874;-1.092;2023-07-20T06:48:03;8.45;;;2.90;;
9783;SDS011;4931;44.874;-1.092;2023-07-20T06:50:29;7.03;;;2.90;;
9783;SDS011;4931;44.874;-1.092;2023-07-20T06:52:54;6.57;;;2.80;;
9783;SDS011;4931;44.874;-1.092;2023-07-20T06:55:20;6.63;;;3.25;;
9783;SDS011;4931;44.874;-1.092;2023-07-20T06:57:46;7.60;;;2.83;;
9783;SDS011;4931;44.874;-1.092;2023-07-20T07:00:11;6.40;;;2.83;;
9783;SDS011;4931;44.874;-1.092;2023-07-20T07:02:38;5.30;;;2.63;;
9783;SDS011;4931;44.874;-1.092;2023-07-20T07:05:03;7.40;;;2.50;;
9783;SDS011;4931;44.874;-1.092;2023-07-20T07:07:29;6.78;;;2.85;;
9783;SDS011;4931;44.874;-1.092;2023-07-20T07:09:55;5.80;;;2.50;;
9783;SDS011;4931;44.874;-1.092;2023-07-20T07:12:20;7.13;;;2.70;;
9783;SDS011;4931;44.874;-1.092;2023-07-20T07:14:46;10.70;;;2.65;;
9783;SDS011;4931;44.874;-1.092;2023-07-20T07:17:11;6.68;;;2.65;;
9783;SDS011;4931;44.874;-1.092;2023-07-20T07:19:37;4.80;;;2.20;;
9783;SDS011;4931;44.874;-1.092;2023-07-20T07:22:03;5.22;;;2.25;;
9783;SDS011;4931;44.874;-1.092;2023-07-20T07:24:29;4.60;;;2.38;;
9783;SDS011;4931;44.874;-1.092;2023-07-20T07:26:59;7.30;;;2.28;;
9783;SDS011;4931;44.874;-1.092;2023-07-20T07:29:24;5.97;;;2.50;;
9783;SDS011;4931;44.874;-1.092;2023-07-20T07:31:50;5.25;;;1.90;;
9783;SDS011;4931;44.874;-1.092;2023-07-20T07:34:16;4.85;;;2.15;;
9783;SDS011;4931;44.874;-1.092;2023-07-20T07:36:41;5.22;;;2.20;;
9783;SDS011;4931;44.874;-1.092;2023-07-20T07:39:07;9.32;;;2.67;;
9783;SDS011;4931;44.874;-1.092;2023-07-20T07:41:34;8.00;;;2.88;;
9783;SDS011;4931;44.874;-1.092;2023-07-20T07:44:00;3.95;;;2.28;;
9783;SDS011;4931;44.874;-1.092;2023-07-20T07:46:25;4.53;;;2.10;;
9783;SDS011;4931;44.874;-1.092;2023-07-20T07:48:51;6.38;;;2.38;;
9783;SDS011;4931;44.874;-1.092;2023-07-20T07:51:16;5.03;;;2.25;;
9783;SDS011;4931;44.874;-1.092;2023-07-20T07:53:42;6.97;;;2.30;;
9783;SDS011;4931;44.874;-1.092;2023-07-20T07:56:08;5.63;;;2.10;;
9783;SDS011;4931;44.874;-1.092;2023-07-20T07:58:34;2.70;;;1.88;;
9783;SDS011;4931;44.874;-1.092;2023-07-20T08:01:00;5.70;;;2.08;;
9783;SDS011;4931;44.874;-1.092;2023-07-20T08:03:25;6.50;;;2.20;;
9783;SDS011;4931;44.874;-1.092;2023-07-20T08:05:53;9.07;;;2.20;;
9783;SDS011;4931;44.874;-1.092;2023-07-20T08:08:22;3.58;;;1.77;;
9783;SDS011;4931;44.874;-1.092;2023-07-20T08:10:48;5.30;;;2.20;;
9783;SDS011;4931;44.874;-1.092;2023-07-20T08:13:13;5.35;;;2.10;;
9783;SDS011;4931;44.874;-1.092;2023-07-20T08:15:39;5.30;;;2.00;;
9783;SDS011;4931;44.874;-1.092;2023-07-20T08:18:07;5.40;;;1.90;;
9783;SDS011;4931;44.874;-1.092;2023-07-20T08:20:33;12.77;;;2.25;;
9783;SDS011;4931;44.874;-1.092;2023-07-20T08:23:01;7.93;;;2.22;;
9783;SDS011;4931;44.874;-1.092;2023-07-20T08:25:26;5.88;;;1.90;;
9783;SDS011;4931;44.874;-1.092;2023-07-20T08:27:51;3.92;;;1.65;;
9783;SDS011;4931;44.874;-1.092;2023-07-20T08:30:17;6.13;;;1.90;;
9783;SDS011;4931;44.874;-1.092;2023-07-20T08:32:46;5.68;;;1.90;;
9783;SDS011;4931;44.874;-1.092;2023-07-20T08:35:11;4.45;;;1.80;;
9783;SDS011;4931;44.874;-1.092;2023-07-20T08:37:36;7.28;;;1.60;;
9783;SDS011;4931;44.874;-1.092;2023-07-20T08:40:02;2.92;;;1.85;;
9783;SDS011;4931;44.874;-1.092;2023-07-20T08:42:30;3.47;;;1.52;;
9783;SDS011;4931;44.874;-1.092;2023-07-20T08:44:56;3.88;;;1.75;;
9783;SDS011;4931;44.874;-1.092;2023-07-20T08:47:23;4.05;;;1.48;;
9783;SDS011;4931;44.874;-1.092;2023-07-20T08:49:50;3.20;;;1.60;;
9783;SDS011;4931;44.874;-1.092;2023-07-20T08:52:17;4.97;;;1.42;;
9783;SDS011;4931;44.874;-1.092;2023-07-20T08:54:42;4.65;;;1.70;;
9783;SDS011;4931;44.874;-1.092;2023-07-20T08:57:08;4.25;;;1.67;;
9783;SDS011;4931;44.874;-1.092;2023-07-20T09:02:04;4.75;;;1.85;;
9783;SDS011;4931;44.874;-1.092;2023-07-20T09:04:30;4.93;;;2.03;;
9783;SDS011;4931;44.874;-1.092;2023-07-20T09:06:56;2.75;;;1.65;;
9783;SDS011;4931;44.874;-1.092;2023-07-20T09:09:22;5.65;;;2.00;;
9783;SDS011;4931;44.874;-1.092;2023-07-20T09:11:48;5.13;;;1.73;;
9783;SDS011;4931;44.874;-1.092;2023-07-20T09:14:14;5.72;;;1.52;;
9783;SDS011;4931;44.874;-1.092;2023-07-20T09:16:47;3.63;;;1.73;;
9783;SDS011;4931;44.874;-1.092;2023-07-20T09:19:17;7.35;;;2.05;;
9783;SDS011;4931;44.874;-1.092;2023-07-20T09:21:46;5.60;;;1.83;;
9783;SDS011;4931;44.874;-1.092;2023-07-20T09:24:13;3.10;;;1.60;;
9783;SDS011;4931;44.874;-1.092;2023-07-20T09:26:42;4.63;;;1.77;;
9783;SDS011;4931;44.874;-1.092;2023-07-20T09:31:35;3.35;;;1.77;;
9783;SDS011;4931;44.874;-1.092;2023-07-20T09:34:01;3.75;;;1.70;;
9783;SDS011;4931;44.874;-1.092;2023-07-20T09:36:26;4.95;;;1.63;;
9783;SDS011;4931;44.874;-1.092;2023-07-20T09:38:53;6.28;;;1.90;;
9783;SDS011;4931;44.874;-1.092;2023-07-20T09:41:19;4.85;;;1.90;;
9783;SDS011;4931;44.874;-1.092;2023-07-20T09:43:46;3.38;;;1.73;;
9783;SDS011;4931;44.874;-1.092;2023-07-20T09:46:11;4.65;;;2.10;;
9783;SDS011;4931;44.874;-1.092;2023-07-20T09:48:37;6.32;;;1.80;;
9783;SDS011;4931;44.874;-1.092;2023-07-20T09:51:02;5.55;;;1.75;;
9783;SDS011;4931;44.874;-1.092;2023-07-20T09:53:30;5.63;;;1.77;;
9783;SDS011;4931;44.874;-1.092;2023-07-20T09:55:58;4.28;;;1.85;;
9783;SDS011;4931;44.874;-1.092;2023-07-20T09:58:25;3.08;;;1.80;;
9783;SDS011;4931;44.874;-1.092;2023-07-20T10:00:51;2.97;;;1.75;;
9783;SDS011;4931;44.874;-1.092;2023-07-20T10:03:25;4.28;;;1.95;;
9783;SDS011;4931;44.874;-1.092;2023-07-20T10:05:55;4.45;;;1.98;;
9783;SDS011;4931;44.874;-1.092;2023-07-20T10:08:24;4.32;;;1.80;;
9783;SDS011;4931;44.874;-1.092;2023-07-20T10:10:50;4.70;;;1.95;;
9783;SDS011;4931;44.874;-1.092;2023-07-20T10:13:21;7.10;;;2.00;;
9783;SDS011;4931;44.874;-1.092;2023-07-20T10:15:53;4.18;;;2.08;;
9783;SDS011;4931;44.874;-1.092;2023-07-20T10:21:14;3.45;;;1.70;;
9783;SDS011;4931;44.874;-1.092;2023-07-20T10:23:42;5.07;;;2.10;;
9783;SDS011;4931;44.874;-1.092;2023-07-20T10:26:08;5.15;;;2.00;;
9783;SDS011;4931;44.874;-1.092;2023-07-20T10:28:35;6.53;;;2.35;;
9783;SDS011;4931;44.874;-1.092;2023-07-20T10:31:01;3.88;;;1.90;;
9783;SDS011;4931;44.874;-1.092;2023-07-20T10:33:27;3.35;;;2.28;;
9783;SDS011;4931;44.874;-1.092;2023-07-20T10:35:54;3.72;;;1.80;;
9783;SDS011;4931;44.874;-1.092;2023-07-20T10:43:43;3.08;;;2.00;;
9783;SDS011;4931;44.874;-1.092;2023-07-20T10:46:10;4.60;;;2.50;;
9783;SDS011;4931;44.874;-1.092;2023-07-20T10:48:58;5.30;;;2.00;;
9783;SDS011;4931;44.874;-1.092;2023-07-20T10:51:29;5.00;;;1.95;;
9783;SDS011;4931;44.874;-1.092;2023-07-20T10:53:56;4.47;;;2.05;;
9783;SDS011;4931;44.874;-1.092;2023-07-20T10:56:25;6.18;;;2.40;;
9783;SDS011;4931;44.874;-1.092;2023-07-20T10:58:59;5.78;;;2.17;;
9783;SDS011;4931;44.874;-1.092;2023-07-20T11:01:29;6.53;;;2.60;;
9783;SDS011;4931;44.874;-1.092;2023-07-20T11:03:58;6.43;;;2.35;;
9783;SDS011;4931;44.874;-1.092;2023-07-20T11:08:57;4.28;;;1.70;;
9783;SDS011;4931;44.874;-1.092;2023-07-20T11:11:32;3.05;;;1.80;;
9783;SDS011;4931;44.874;-1.092;2023-07-20T11:14:00;5.15;;;1.88;;
9783;SDS011;4931;44.874;-1.092;2023-07-20T11:19:03;3.72;;;1.88;;
9783;SDS011;4931;44.874;-1.092;2023-07-20T11:21:34;3.85;;;1.40;;
9783;SDS011;4931;44.874;-1.092;2023-07-20T11:24:05;4.05;;;1.55;;
9783;SDS011;4931;44.874;-1.092;2023-07-20T11:26:39;2.97;;;1.20;;
9783;SDS011;4931;44.874;-1.092;2023-07-20T11:29:05;3.78;;;1.40;;
9783;SDS011;4931;44.874;-1.092;2023-07-20T11:31:31;4.97;;;1.33;;
9783;SDS011;4931;44.874;-1.092;2023-07-20T11:34:00;2.10;;;1.00;;
9783;SDS011;4931;44.874;-1.092;2023-07-20T11:36:26;2.72;;;1.00;;
9783;SDS011;4931;44.874;-1.092;2023-07-20T11:38:51;1.50;;;1.10;;
9783;SDS011;4931;44.874;-1.092;2023-07-20T11:41:17;2.63;;;1.10;;
9783;SDS011;4931;44.874;-1.092;2023-07-20T11:43:43;2.55;;;0.90;;
9783;SDS011;4931;44.874;-1.092;2023-07-20T11:46:10;1.98;;;0.98;;
9783;SDS011;4931;44.874;-1.092;2023-07-20T11:48:36;7.05;;;1.23;;
9783;SDS011;4931;44.874;-1.092;2023-07-20T11:51:02;3.55;;;0.90;;
9783;SDS011;4931;44.874;-1.092;2023-07-20T11:53:27;5.13;;;1.55;;
9783;SDS011;4931;44.874;-1.092;2023-07-20T11:55:53;5.75;;;1.02;;
9783;SDS011;4931;44.874;-1.092;2023-07-20T11:58:19;4.88;;;1.00;;
9783;SDS011;4931;44.874;-1.092;2023-07-20T12:00:46;2.03;;;0.80;;
9783;SDS011;4931;44.874;-1.092;2023-07-20T12:03:12;4.72;;;1.25;;
9783;SDS011;4931;44.874;-1.092;2023-07-20T12:05:38;3.00;;;0.90;;
9783;SDS011;4931;44.874;-1.092;2023-07-20T12:08:05;2.58;;;0.82;;
9783;SDS011;4931;44.874;-1.092;2023-07-20T12:10:30;1.83;;;0.80;;
9783;SDS011;4931;44.874;-1.092;2023-07-20T12:13:02;2.03;;;0.88;;
9783;SDS011;4931;44.874;-1.092;2023-07-20T12:15:32;3.00;;;1.00;;
9783;SDS011;4931;44.874;-1.092;2023-07-20T12:17:58;3.28;;;1.00;;
9783;SDS011;4931;44.874;-1.092;2023-07-20T12:22:50;2.78;;;0.80;;
9783;SDS011;4931;44.874;-1.092;2023-07-20T12:25:16;2.83;;;1.00;;
9783;SDS011;4931;44.874;-1.092;2023-07-20T12:27:44;3.40;;;1.38;;
9783;SDS011;4931;44.874;-1.092;2023-07-20T12:30:09;1.70;;;0.80;;
9783;SDS011;4931;44.874;-1.092;2023-07-20T12:32:35;1.75;;;0.80;;
9783;SDS011;4931;44.874;-1.092;2023-07-20T12:35:01;2.55;;;0.85;;
9783;SDS011;4931;44.874;-1.092;2023-07-20T12:37:26;2.25;;;0.80;;
9783;SDS011;4931;44.874;-1.092;2023-07-20T12:39:52;3.20;;;0.90;;
9783;SDS011;4931;44.874;-1.092;2023-07-20T12:42:18;1.98;;;0.90;;
9783;SDS011;4931;44.874;-1.092;2023-07-20T12:44:43;1.90;;;0.80;;
9783;SDS011;4931;44.874;-1.092;2023-07-20T12:47:09;1.83;;;0.93;;
9783;SDS011;4931;44.874;-1.092;2023-07-20T12:49:34;1.00;;;0.70;;
9783;SDS011;4931;44.874;-1.092;2023-07-20T12:52:00;2.13;;;0.80;;
9783;SDS011;4931;44.874;-1.092;2023-07-20T12:54:25;3.25;;;1.20;;
9783;SDS011;4931;44.874;-1.092;2023-07-20T12:56:51;3.03;;;0.90;;
9783;SDS011;4931;44.874;-1.092;2023-07-20T12:59:16;4.13;;;0.95;;
9783;SDS011;4931;44.874;-1.092;2023-07-20T13:01:42;1.92;;;1.00;;
9783;SDS011;4931;44.874;-1.092;2023-07-20T13:04:09;2.80;;;0.80;;
9783;SDS011;4931;44.874;-1.092;2023-07-20T13:06:35;2.72;;;1.20;;
9783;SDS011;4931;44.874;-1.092;2023-07-20T13:09:01;3.40;;;1.02;;
9783;SDS011;4931;44.874;-1.092;2023-07-20T13:11:26;2.53;;;1.00;;
9783;SDS011;4931;44.874;-1.092;2023-07-20T13:13:52;1.77;;;1.00;;
9783;SDS011;4931;44.874;-1.092;2023-07-20T13:16:18;2.70;;;1.20;;
9783;SDS011;4931;44.874;-1.092;2023-07-20T13:18:43;2.72;;;1.20;;
9783;SDS011;4931;44.874;-1.092;2023-07-20T13:21:09;4.60;;;1.20;;
9783;SDS011;4931;44.874;-1.092;2023-07-20T13:23:36;1.45;;;0.73;;
9783;SDS011;4931;44.874;-1.092;2023-07-20T13:26:02;2.42;;;1.10;;
9783;SDS011;4931;44.874;-1.092;2023-07-20T13:28:29;1.60;;;0.77;;
9783;SDS011;4931;44.874;-1.092;2023-07-20T13:30:55;6.57;;;1.00;;
9783;SDS011;4931;44.874;-1.092;2023-07-20T13:33:20;4.55;;;1.02;;
9783;SDS011;4931;44.874;-1.092;2023-07-20T13:35:46;2.40;;;1.00;;
9783;SDS011;4931;44.874;-1.092;2023-07-20T13:38:12;2.10;;;0.80;;
9783;SDS011;4931;44.874;-1.092;2023-07-20T13:40:38;2.75;;;0.88;;
9783;SDS011;4931;44.874;-1.092;2023-07-20T13:43:04;2.35;;;0.77;;
9783;SDS011;4931;44.874;-1.092;2023-07-20T13:45:29;1.80;;;1.00;;
9783;SDS011;4931;44.874;-1.092;2023-07-20T13:47:55;3.50;;;0.80;;
9783;SDS011;4931;44.874;-1.092;2023-07-20T13:50:20;3.60;;;1.15;;
9783;SDS011;4931;44.874;-1.092;2023-07-20T13:52:46;3.60;;;0.80;;
9783;SDS011;4931;44.874;-1.092;2023-07-20T13:55:11;1.92;;;1.00;;
9783;SDS011;4931;44.874;-1.092;2023-07-20T13:57:37;1.83;;;0.85;;
9783;SDS011;4931;44.874;-1.092;2023-07-20T14:00:03;2.28;;;0.85;;
9783;SDS011;4931;44.874;-1.092;2023-07-20T14:02:29;2.25;;;0.80;;
9783;SDS011;4931;44.874;-1.092;2023-07-20T14:04:55;1.85;;;0.80;;
9783;SDS011;4931;44.874;-1.092;2023-07-20T14:07:21;2.85;;;1.00;;
9783;SDS011;4931;44.874;-1.092;2023-07-20T14:09:47;2.20;;;0.77;;
9783;SDS011;4931;44.874;-1.092;2023-07-20T14:12:12;3.90;;;0.90;;
9783;SDS011;4931;44.874;-1.092;2023-07-20T14:14:39;3.72;;;2.05;;
9783;SDS011;4931;44.874;-1.092;2023-07-20T14:17:06;3.30;;;0.82;;
9783;SDS011;4931;44.874;-1.092;2023-07-20T14:19:32;1.35;;;0.70;;
9783;SDS011;4931;44.874;-1.092;2023-07-20T14:21:57;1.25;;;0.90;;
9783;SDS011;4931;44.874;-1.092;2023-07-20T14:24:24;3.38;;;1.00;;
9783;SDS011;4931;44.874;-1.092;2023-07-20T14:26:51;3.20;;;0.85;;
9783;SDS011;4931;44.874;-1.092;2023-07-20T14:29:16;2.38;;;1.10;;
9783;SDS011;4931;44.874;-1.092;2023-07-20T14:31:44;3.67;;;1.15;;
9783;SDS011;4931;44.874;-1.092;2023-07-20T14:34:10;4.15;;;1.13;;
9783;SDS011;4931;44.874;-1.092;2023-07-20T14:36:35;5.43;;;1.10;;
9783;SDS011;4931;44.874;-1.092;2023-07-20T14:39:01;4.63;;;1.00;;
9783;SDS011;4931;44.874;-1.092;2023-07-20T14:41:26;3.97;;;1.17;;
9783;SDS011;4931;44.874;-1.092;2023-07-20T14:43:52;2.10;;;1.02;;
9783;SDS011;4931;44.874;-1.092;2023-07-20T14:46:17;3.13;;;0.95;;
9783;SDS011;4931;44.874;-1.092;2023-07-20T14:48:43;3.63;;;0.90;;
9783;SDS011;4931;44.874;-1.092;2023-07-20T14:51:08;1.95;;;1.00;;
9783;SDS011;4931;44.874;-1.092;2023-07-20T14:53:34;3.47;;;1.10;;
9783;SDS011;4931;44.874;-1.092;2023-07-20T14:56:00;3.55;;;1.15;;
9783;SDS011;4931;44.874;-1.092;2023-07-20T14:58:26;4.45;;;1.23;;
9783;SDS011;4931;44.874;-1.092;2023-07-20T15:00:52;2.83;;;1.20;;
9783;SDS011;4931;44.874;-1.092;2023-07-20T15:03:17;5.43;;;1.27;;
9783;SDS011;4931;44.874;-1.092;2023-07-20T15:05:43;5.07;;;1.35;;
9783;SDS011;4931;44.874;-1.092;2023-07-20T15:08:08;4.32;;;1.45;;
9783;SDS011;4931;44.874;-1.092;2023-07-20T15:10:34;2.90;;;1.40;;
9783;SDS011;4931;44.874;-1.092;2023-07-20T15:13:00;5.03;;;1.45;;
9783;SDS011;4931;44.874;-1.092;2023-07-20T15:15:25;4.32;;;1.27;;
9783;SDS011;4931;44.874;-1.092;2023-07-20T15:17:51;4.07;;;1.40;;
9783;SDS011;4931;44.874;-1.092;2023-07-20T15:20:18;3.30;;;1.20;;
9783;SDS011;4931;44.874;-1.092;2023-07-20T15:22:43;3.53;;;1.15;;
9783;SDS011;4931;44.874;-1.092;2023-07-20T15:25:09;5.53;;;1.48;;
9783;SDS011;4931;44.874;-1.092;2023-07-20T15:27:38;4.03;;;1.50;;